LJLJ/LJU METAR and TAF weather

Enter ICAO airport designator
Station Type Date Time Source
LJLJ METAR 2020/01/20 10:00 UTC NOAA

LJLJ 201000Z 12001KT 9999 FEW023 SCT060 BKN150 00/M01 Q1043 NOSIG


Station Type Date Time Source
LJLJ Decoded METAR 2020/01/20 10:00 UTC NOAA

Ljubljana / Brnik, Slovenia (LJLJ) 46-13N 014-29E 362M
Jan 20, 2020 - 05:00 AM EST / 2020.01.20 1000 UTC
Wind: from the ESE (120 degrees) at 1 MPH (1 KT):0
Visibility: greater than 7 mile(s):0
Sky conditions: mostly cloudy
Temperature: 32 F (0 C)
Dew Point: 30 F (-1 C)
Relative Humidity: 92%
Pressure (altimeter): 30.80 in. Hg (1043 hPa)
ob: LJLJ 201000Z 12001KT 9999 FEW023 SCT060 BKN150 00/M01 Q1043 NOSIG
cycle: 10

Station Type Date Time Source
LJLJ TAF 2020/01/20 09:07 UTC NOAA

TAF LJLJ 200800Z 2009/2109 VRB03KT 8000 FEW005 BKN060
TEMPO 2009/2013 SCT060 BKN140
BECMG 2011/2013 12004KT
BECMG 2101/2103 5000 BR BKN020 PROB30
TEMPO 2102/2108 1500 BCFG BR BKN001

Example: see airport list